createdAt,value
2018-10-16T00:00:16.431Z,14.57
2018-10-16T00:02:44.639Z,13.13
2018-10-16T00:05:11.809Z,15.03
2018-10-16T00:07:38.941Z,15.00
2018-10-16T00:10:06.824Z,15.00
2018-10-16T00:12:33.913Z,14.20
2018-10-16T00:15:01.064Z,14.47
2018-10-16T00:17:28.155Z,15.30
2018-10-16T00:19:55.236Z,15.30
2018-10-16T00:22:22.423Z,14.93
2018-10-16T00:24:49.515Z,13.93
2018-10-16T00:27:16.638Z,16.53
2018-10-16T00:29:43.710Z,19.87
2018-10-16T00:32:10.786Z,19.03
2018-10-16T00:34:38.088Z,17.93
2018-10-16T00:37:05.266Z,17.60
2018-10-16T00:39:32.335Z,23.27
2018-10-16T00:41:59.414Z,17.03
2018-10-16T00:44:26.480Z,16.03
2018-10-16T00:46:54.203Z,16.07
2018-10-16T00:49:21.411Z,16.80
2018-10-16T00:51:48.565Z,17.90
2018-10-16T00:54:15.669Z,15.60
2018-10-16T00:56:42.764Z,17.50
2018-10-16T00:59:09.849Z,17.20
2018-10-16T01:01:37.071Z,16.07
2018-10-16T01:04:05.451Z,18.97
2018-10-16T01:06:33.608Z,17.70
2018-10-16T01:09:00.708Z,17.07
2018-10-16T01:11:27.822Z,16.60
2018-10-16T01:13:56.713Z,16.80
2018-10-16T01:16:23.835Z,16.23
2018-10-16T01:18:50.979Z,16.80
2018-10-16T01:21:18.217Z,17.30
2018-10-16T01:23:45.309Z,16.23
2018-10-16T01:26:12.383Z,16.53
2018-10-16T01:28:40.016Z,16.93
2018-10-16T01:31:08.082Z,16.73
2018-10-16T01:33:35.224Z,17.47
2018-10-16T01:36:02.353Z,15.97
2018-10-16T01:38:29.441Z,17.03
2018-10-16T01:40:56.516Z,16.50
2018-10-16T01:43:23.601Z,16.70
2018-10-16T01:45:50.887Z,17.03
2018-10-16T01:48:18.035Z,17.97
2018-10-16T01:50:45.183Z,16.73
2018-10-16T01:53:12.260Z,15.80
2018-10-16T01:55:39.333Z,16.63
2018-10-16T01:58:06.405Z,16.57
2018-10-16T02:00:33.467Z,15.93
2018-10-16T02:03:01.924Z,16.90
2018-10-16T02:05:29.311Z,17.20
2018-10-16T02:07:56.377Z,17.20
2018-10-16T02:10:23.464Z,16.27
2018-10-16T02:12:51.171Z,16.53
2018-10-16T02:15:18.395Z,16.47
2018-10-16T02:17:45.562Z,15.40
2018-10-16T02:20:13.073Z,15.73
2018-10-16T02:22:40.165Z,15.03
2018-10-16T02:25:08.135Z,16.70
2018-10-16T02:27:35.596Z,17.27
2018-10-16T02:30:02.716Z,15.53
2018-10-16T02:32:29.825Z,15.90
2018-10-16T02:34:57.356Z,16.63
2018-10-16T02:37:24.541Z,17.20
2018-10-16T02:39:51.672Z,15.17
2018-10-16T02:42:18.751Z,17.40
2018-10-16T02:44:45.825Z,17.87
2018-10-16T02:47:12.923Z,16.60
2018-10-16T02:49:39.995Z,16.80
2018-10-16T02:52:07.077Z,15.70
2018-10-16T02:54:34.160Z,15.40
2018-10-16T02:57:01.221Z,16.53
2018-10-16T02:59:28.315Z,15.63
2018-10-16T03:01:55.488Z,16.80
2018-10-16T03:04:22.553Z,16.03
2018-10-16T03:06:49.676Z,15.70
2018-10-16T03:09:16.768Z,16.30
2018-10-16T03:11:43.828Z,16.50
2018-10-16T03:14:10.899Z,15.83
2018-10-16T03:16:37.973Z,16.07
2018-10-16T03:19:05.118Z,16.67
2018-10-16T03:21:32.215Z,15.63
2018-10-16T03:23:59.289Z,14.93
2018-10-16T03:26:26.580Z,17.13
2018-10-16T03:28:53.727Z,15.67
2018-10-16T03:31:20.807Z,15.13
2018-10-16T03:33:48.157Z,15.67
2018-10-16T03:36:15.271Z,16.67
2018-10-16T03:38:42.532Z,16.47
2018-10-16T03:41:09.620Z,16.40
2018-10-16T03:43:37.660Z,15.90
2018-10-16T03:46:04.998Z,16.70
2018-10-16T03:48:32.371Z,16.90
2018-10-16T03:50:59.522Z,17.73
2018-10-16T03:53:26.684Z,17.73
2018-10-16T03:55:53.761Z,16.23
2018-10-16T03:58:21.253Z,16.90
2018-10-16T04:00:48.427Z,18.97
2018-10-16T04:03:15.541Z,16.93
2018-10-16T04:05:42.692Z,18.10
2018-10-16T04:08:09.783Z,16.53
2018-10-16T04:10:37.210Z,17.03
2018-10-16T04:13:04.945Z,17.00
2018-10-16T04:15:32.058Z,16.50
2018-10-16T04:17:59.272Z,16.77
2018-10-16T04:20:26.417Z,17.87
2018-10-16T04:22:53.545Z,18.30
2018-10-16T04:25:20.661Z,17.77
2018-10-16T04:27:47.739Z,17.80
2018-10-16T04:30:14.917Z,18.67
2018-10-16T04:32:42.079Z,17.07
2018-10-16T04:35:13.516Z,17.27
2018-10-16T04:37:40.979Z,17.50
2018-10-16T04:40:08.121Z,17.97
2018-10-16T04:42:35.223Z,16.73
2018-10-16T04:45:02.358Z,18.17
2018-10-16T04:47:29.544Z,17.20
2018-10-16T04:49:56.691Z,16.87
2018-10-16T04:52:23.872Z,17.07
2018-10-16T04:54:50.935Z,16.73
2018-10-16T04:57:18.076Z,17.63
2018-10-16T04:59:45.149Z,16.77
2018-10-16T05:02:12.533Z,16.70
2018-10-16T05:04:39.603Z,16.53
2018-10-16T05:07:06.668Z,17.10
2018-10-16T05:09:33.732Z,15.43
2018-10-16T05:12:00.863Z,17.17
2018-10-16T05:14:27.975Z,16.60
2018-10-16T05:16:55.130Z,16.33
2018-10-16T05:19:22.146Z,17.50
2018-10-16T05:21:49.359Z,16.03
2018-10-16T05:24:16.451Z,18.30
2018-10-16T05:26:44.528Z,18.03
2018-10-16T05:29:11.610Z,17.40
2018-10-16T05:31:39.043Z,19.97
2018-10-16T05:34:07.148Z,23.17
2018-10-16T05:36:34.399Z,29.73
2018-10-16T05:39:02.001Z,34.83
2018-10-16T05:41:29.211Z,23.20
2018-10-16T05:43:56.385Z,27.47
2018-10-16T05:46:23.522Z,16.60
2018-10-16T05:48:50.600Z,21.83
2018-10-16T05:51:17.773Z,31.00
2018-10-16T05:53:44.929Z,25.50
2018-10-16T05:56:12.003Z,40.50
2018-10-16T05:58:39.068Z,34.17
2018-10-16T06:01:06.430Z,25.10
2018-10-16T06:06:15.217Z,35.37
2018-10-16T06:08:42.296Z,33.40
2018-10-16T06:11:09.373Z,34.10
2018-10-16T06:13:36.496Z,21.33
2018-10-16T06:16:03.625Z,20.33
2018-10-16T06:18:30.695Z,19.80
2018-10-16T06:20:57.792Z,25.07
2018-10-16T06:27:07.664Z,22.67
2018-10-16T06:29:34.732Z,29.53
2018-10-16T06:32:01.810Z,24.97
2018-10-16T06:34:29.059Z,25.20
2018-10-16T06:36:56.204Z,19.50
2018-10-16T06:39:23.264Z,34.97
2018-10-16T06:41:50.744Z,26.33
2018-10-16T06:44:17.892Z,30.93
2018-10-16T06:46:44.978Z,22.23
2018-10-16T06:49:12.115Z,26.07
2018-10-16T06:51:39.204Z,19.07
2018-10-16T06:54:06.268Z,24.40
2018-10-16T06:56:33.811Z,26.60
2018-10-16T06:59:00.867Z,22.63
2018-10-16T07:01:28.300Z,22.37
2018-10-16T07:03:55.459Z,22.87
2018-10-16T07:06:22.557Z,24.43
2018-10-16T07:08:49.877Z,17.57
2018-10-16T07:11:16.944Z,20.47
2018-10-16T07:13:44.339Z,21.13
2018-10-16T07:16:13.877Z,21.77
2018-10-16T07:18:41.358Z,20.60
2018-10-16T07:21:08.449Z,20.87
2018-10-16T07:23:35.659Z,20.97
2018-10-16T07:26:02.709Z,20.17
2018-10-16T07:28:29.836Z,20.97
2018-10-16T07:30:57.045Z,19.67
2018-10-16T07:33:24.127Z,21.90
2018-10-16T07:35:51.245Z,23.30
2018-10-16T07:41:01.481Z,21.00
2018-10-16T07:43:28.565Z,20.40
2018-10-16T07:45:55.655Z,22.80
2018-10-16T07:48:22.874Z,20.10
2018-10-16T07:50:50.110Z,22.37
2018-10-16T07:53:17.283Z,22.40
2018-10-16T07:55:44.829Z,23.03
2018-10-16T07:58:12.008Z,22.30
2018-10-16T08:00:39.580Z,21.03
2018-10-16T08:03:06.873Z,23.47
2018-10-16T08:05:33.950Z,21.50
2018-10-16T08:08:01.607Z,21.67
2018-10-16T08:10:28.667Z,22.70
2018-10-16T08:12:55.853Z,22.00
2018-10-16T08:15:22.958Z,23.60
2018-10-16T08:17:50.093Z,21.93
2018-10-16T08:20:17.194Z,22.17
2018-10-16T08:22:44.640Z,25.97
2018-10-16T08:25:11.708Z,26.83
2018-10-16T08:27:38.965Z,24.07
2018-10-16T08:30:07.167Z,26.00
2018-10-16T08:32:34.204Z,25.20
2018-10-16T08:35:01.365Z,24.93
2018-10-16T08:39:48.173Z,24.57
2018-10-16T08:43:30.392Z,33.63
2018-10-16T08:46:09.510Z,27.80
2018-10-16T08:48:48.526Z,26.30
2018-10-16T08:51:32.055Z,24.30
2018-10-16T08:53:59.144Z,33.53
2018-10-16T08:56:26.301Z,34.70
2018-10-16T08:58:53.459Z,24.87
2018-10-16T09:01:20.692Z,29.80
2018-10-16T09:03:47.811Z,30.37
2018-10-16T09:06:14.993Z,26.27
2018-10-16T09:08:42.173Z,25.50
2018-10-16T09:11:09.531Z,43.50
2018-10-16T09:13:36.703Z,36.80
2018-10-16T09:16:05.240Z,24.03
2018-10-16T09:18:32.628Z,31.50
2018-10-16T09:20:59.784Z,26.97
2018-10-16T09:23:26.975Z,27.10
2018-10-16T09:25:54.296Z,30.00
2018-10-16T09:28:22.047Z,27.60
2018-10-16T09:30:50.700Z,28.13
2018-10-16T09:33:18.049Z,26.40
2018-10-16T09:35:45.204Z,25.70
2018-10-16T09:38:12.707Z,28.67
2018-10-16T09:40:40.019Z,27.40
2018-10-16T09:43:07.252Z,28.03
2018-10-16T09:45:35.310Z,26.70
2018-10-16T09:48:02.895Z,26.90
2018-10-16T09:50:29.968Z,25.07
2018-10-16T09:52:57.123Z,28.07
2018-10-16T09:55:24.308Z,26.13
2018-10-16T09:57:51.392Z,26.30
2018-10-16T10:00:24.223Z,25.97
2018-10-16T10:02:51.295Z,25.10
2018-10-16T10:05:18.479Z,26.97
2018-10-16T10:07:45.848Z,27.17
2018-10-16T10:10:12.948Z,26.43
2018-10-16T10:12:40.047Z,25.33
2018-10-16T10:15:07.272Z,25.50
2018-10-16T10:17:34.751Z,30.97
2018-10-16T10:20:02.103Z,39.30
2018-10-16T10:22:29.300Z,44.87
2018-10-16T10:24:56.627Z,52.03
2018-10-16T10:27:23.696Z,31.80
2018-10-16T10:29:50.898Z,22.60
2018-10-16T10:32:18.034Z,24.90
2018-10-16T10:34:45.108Z,23.00
2018-10-16T10:37:12.172Z,44.00
2018-10-16T10:39:39.339Z,24.80
2018-10-16T10:42:06.458Z,24.73
2018-10-16T10:44:33.601Z,22.47
2018-10-16T10:47:00.717Z,23.80
2018-10-16T10:49:27.809Z,30.37
2018-10-16T10:51:54.951Z,24.13
2018-10-16T10:54:22.119Z,24.47
2018-10-16T10:56:49.317Z,30.23
2018-10-16T10:59:16.338Z,22.63
2018-10-16T11:01:43.421Z,23.70
2018-10-16T11:04:10.568Z,21.00
2018-10-16T11:06:37.648Z,23.13
2018-10-16T11:09:07.049Z,22.67
2018-10-16T11:11:34.192Z,23.10
2018-10-16T11:14:01.305Z,22.20
2018-10-16T11:16:28.393Z,22.40
2018-10-16T11:18:55.472Z,22.50
2018-10-16T11:21:22.601Z,21.30
2018-10-16T11:23:49.774Z,19.40
2018-10-16T11:26:16.863Z,18.13
2018-10-16T11:28:44.025Z,16.53
2018-10-16T11:31:11.122Z,16.80
2018-10-16T11:33:38.275Z,18.03
2018-10-16T11:36:05.360Z,16.70
2018-10-16T11:38:32.456Z,17.47
2018-10-16T11:40:59.524Z,16.93
2018-10-16T11:43:26.593Z,16.27
2018-10-16T11:45:54.054Z,17.00
2018-10-16T11:48:21.156Z,19.00
2018-10-16T11:50:48.220Z,16.10
2018-10-16T11:53:15.328Z,17.40
2018-10-16T11:55:42.400Z,17.87
2018-10-16T11:58:09.466Z,18.23
2018-10-16T12:00:36.547Z,16.73
2018-10-16T12:03:03.680Z,18.27
2018-10-16T12:05:30.811Z,15.67
2018-10-16T12:07:57.979Z,16.57
2018-10-16T12:10:25.068Z,18.73
2018-10-16T12:12:52.278Z,16.70
2018-10-16T12:15:19.330Z,17.10
2018-10-16T12:17:53.605Z,18.60
2018-10-16T12:20:29.849Z,17.83
2018-10-16T12:22:57.303Z,19.87
2018-10-16T12:25:24.421Z,17.60
2018-10-16T12:27:51.584Z,17.77
2018-10-16T12:30:18.775Z,19.73
2018-10-16T12:32:45.859Z,17.67
2018-10-16T12:35:12.947Z,18.70
2018-10-16T12:37:40.316Z,19.13
2018-10-16T12:40:07.915Z,18.97
2018-10-16T12:42:35.218Z,17.43
2018-10-16T12:45:02.636Z,17.93
2018-10-16T12:47:29.775Z,18.90
2018-10-16T12:49:57.105Z,18.63
2018-10-16T12:52:24.196Z,18.33
2018-10-16T12:54:51.311Z,21.87
2018-10-16T12:57:18.469Z,18.07
2018-10-16T12:59:45.519Z,18.23
2018-10-16T13:02:12.650Z,16.90
2018-10-16T13:04:39.720Z,18.03
2018-10-16T13:07:13.391Z,18.10
2018-10-16T13:09:40.462Z,17.87
2018-10-16T13:12:07.608Z,16.33
2018-10-16T13:14:34.679Z,17.70
2018-10-16T13:17:01.798Z,18.97
2018-10-16T13:19:28.895Z,18.10
2018-10-16T13:21:56.091Z,17.87
2018-10-16T13:24:23.140Z,21.20
2018-10-16T13:26:55.789Z,16.97
2018-10-16T13:29:30.113Z,16.57
2018-10-16T13:31:58.195Z,15.60
2018-10-16T13:34:25.297Z,16.93
2018-10-16T13:36:52.617Z,14.70
2018-10-16T13:39:19.715Z,14.93
2018-10-16T13:41:47.078Z,14.37
2018-10-16T13:44:14.497Z,16.40
2018-10-16T13:46:41.895Z,17.83
2018-10-16T13:49:09.128Z,17.70
2018-10-16T13:51:36.448Z,16.40
2018-10-16T13:54:03.791Z,16.80
2018-10-16T13:56:31.183Z,15.17
2018-10-16T13:58:58.340Z,15.50
2018-10-16T14:01:25.432Z,23.63
2018-10-16T14:03:52.539Z,14.63
2018-10-16T14:06:19.833Z,17.73
2018-10-16T14:08:46.986Z,17.47
2018-10-16T14:11:14.444Z,16.77
2018-10-16T14:13:41.612Z,16.17
2018-10-16T14:16:08.881Z,18.70
2018-10-16T14:18:35.953Z,17.93
2018-10-16T14:21:03.294Z,19.00
2018-10-16T14:23:30.379Z,17.73
2018-10-16T14:25:57.470Z,18.30
2018-10-16T14:28:24.645Z,18.40
2018-10-16T14:30:51.796Z,19.17
2018-10-16T14:33:18.979Z,17.93
2018-10-16T14:35:46.420Z,22.23
2018-10-16T14:38:13.595Z,18.83
2018-10-16T14:40:40.769Z,16.10
2018-10-16T14:43:07.793Z,18.60
2018-10-16T14:45:35.143Z,18.30
2018-10-16T14:48:02.420Z,24.33
2018-10-16T14:50:29.557Z,19.13
2018-10-16T14:52:57.052Z,22.03
2018-10-16T14:55:24.291Z,18.87
2018-10-16T14:57:51.498Z,19.47
2018-10-16T15:00:18.517Z,18.67
2018-10-16T15:02:45.679Z,22.80
2018-10-16T15:05:12.827Z,19.63
2018-10-16T15:07:39.942Z,19.20
2018-10-16T15:10:07.812Z,20.90
2018-10-16T15:12:34.830Z,20.67
2018-10-16T15:15:02.884Z,18.60
2018-10-16T15:17:30.533Z,19.17
2018-10-16T15:19:57.917Z,19.73
2018-10-16T15:22:24.990Z,19.93
2018-10-16T15:24:52.236Z,25.73
2018-10-16T15:27:19.739Z,18.27
2018-10-16T15:29:46.984Z,26.70
2018-10-16T15:32:14.544Z,20.87
2018-10-16T15:34:41.698Z,18.87
2018-10-16T15:37:09.077Z,22.20
2018-10-16T15:39:36.173Z,21.80
2018-10-16T15:42:03.609Z,19.43
2018-10-16T15:44:30.676Z,19.90
2018-10-16T15:46:57.839Z,20.53
2018-10-16T15:49:24.968Z,20.07
2018-10-16T15:51:52.198Z,22.60
2018-10-16T15:54:19.931Z,21.70
2018-10-16T15:56:48.607Z,19.90
2018-10-16T15:59:15.724Z,19.60
2018-10-16T16:01:42.880Z,19.73
2018-10-16T16:04:09.976Z,22.97
2018-10-16T16:06:37.024Z,20.30
2018-10-16T16:09:05.528Z,22.10
2018-10-16T16:11:33.229Z,24.73
2018-10-16T16:14:00.495Z,22.93
2018-10-16T16:16:41.148Z,29.27
2018-10-16T16:19:08.465Z,29.53
2018-10-16T16:21:35.584Z,19.20
2018-10-16T16:24:02.842Z,17.40
2018-10-16T16:26:30.384Z,17.43
2018-10-16T16:28:57.476Z,20.30
2018-10-16T16:31:24.635Z,18.90
2018-10-16T16:33:51.821Z,18.80
2018-10-16T16:36:18.895Z,18.83
2018-10-16T16:38:46.697Z,19.60
2018-10-16T16:41:14.139Z,19.73
2018-10-16T16:43:41.958Z,20.80
2018-10-16T16:46:09.370Z,72.37
2018-10-16T16:48:36.458Z,36.10
2018-10-16T16:51:03.710Z,33.73
2018-10-16T16:53:30.800Z,20.80
2018-10-16T16:55:58.007Z,38.27
2018-10-16T16:58:25.591Z,63.53
2018-10-16T17:00:52.678Z,44.00
2018-10-16T17:03:20.367Z,28.27
2018-10-16T17:05:47.528Z,33.10
2018-10-16T17:08:14.737Z,51.07
2018-10-16T17:10:41.919Z,48.50
2018-10-16T17:13:10.092Z,86.47
2018-10-16T17:15:37.188Z,32.17
2018-10-16T17:18:04.711Z,31.97
2018-10-16T17:20:31.768Z,24.97
2018-10-16T17:22:59.090Z,91.73
2018-10-16T17:25:26.465Z,54.17
2018-10-16T17:27:53.447Z,67.97
2018-10-16T17:30:20.590Z,51.37
2018-10-16T17:32:47.656Z,40.77
2018-10-16T17:35:15.355Z,27.03
2018-10-16T17:37:42.797Z,36.40
2018-10-16T17:40:12.032Z,23.37
2018-10-16T17:42:39.635Z,26.03
2018-10-16T17:45:10.069Z,23.43
2018-10-16T17:47:37.204Z,24.10
2018-10-16T17:50:06.513Z,22.20
2018-10-16T17:52:33.736Z,22.87
2018-10-16T17:55:00.841Z,24.07
2018-10-16T17:57:27.990Z,21.47
2018-10-16T17:59:55.487Z,22.63
2018-10-16T18:02:22.604Z,32.10
2018-10-16T18:04:49.804Z,55.10
2018-10-16T18:07:16.917Z,44.50
2018-10-16T18:09:44.020Z,54.23
2018-10-16T18:12:11.108Z,21.60
2018-10-16T18:14:38.413Z,22.80
2018-10-16T18:17:06.031Z,24.00
2018-10-16T18:19:33.282Z,26.60
2018-10-16T18:22:00.777Z,40.03
2018-10-16T18:24:27.927Z,34.83
2018-10-16T18:26:55.107Z,34.90
2018-10-16T18:29:22.189Z,44.80
2018-10-16T18:31:49.516Z,37.00
2018-10-16T18:34:16.665Z,35.23
2018-10-16T18:36:43.761Z,35.30
2018-10-16T18:39:11.093Z,40.87
2018-10-16T18:41:38.135Z,34.97
2018-10-16T18:44:06.437Z,28.10
2018-10-16T18:46:33.709Z,38.23
2018-10-16T18:49:00.769Z,30.73
2018-10-16T18:51:28.021Z,35.57
2018-10-16T18:53:55.420Z,58.87
2018-10-16T18:56:22.696Z,34.90
2018-10-16T18:58:49.833Z,26.77
2018-10-16T19:01:16.987Z,38.83
2018-10-16T19:03:44.256Z,31.33
2018-10-16T19:06:11.441Z,32.93
2018-10-16T19:08:38.531Z,38.73
2018-10-16T19:11:05.632Z,30.97
2018-10-16T19:13:32.813Z,31.63
2018-10-16T19:15:59.927Z,30.90
2018-10-16T19:18:27.099Z,27.07
2018-10-16T19:20:54.228Z,26.33
2018-10-16T19:23:21.529Z,38.83
2018-10-16T19:25:48.649Z,28.97
2018-10-16T19:28:15.855Z,29.13
2018-10-16T19:30:43.100Z,47.43
2018-10-16T19:33:10.206Z,42.27
2018-10-16T19:35:37.287Z,34.37
2018-10-16T19:38:04.724Z,44.60
2018-10-16T19:40:31.800Z,30.70
2018-10-16T19:42:58.885Z,34.00
2018-10-16T19:45:26.561Z,40.07
2018-10-16T19:47:53.691Z,30.77
2018-10-16T19:50:21.687Z,25.33
2018-10-16T19:52:49.240Z,25.23
2018-10-16T19:55:16.583Z,25.43
2018-10-16T19:57:43.668Z,28.70
2018-10-16T20:00:10.851Z,32.60
2018-10-16T20:02:38.257Z,34.73
2018-10-16T20:05:05.923Z,54.33
2018-10-16T20:07:33.220Z,49.10
2018-10-16T20:10:00.387Z,91.93
2018-10-16T20:12:27.612Z,75.43
2018-10-16T20:14:54.716Z,153.43
2018-10-16T20:17:22.627Z,113.70
2018-10-16T20:19:50.323Z,160.67
2018-10-16T20:22:17.395Z,97.50
2018-10-16T20:24:44.655Z,38.13
2018-10-16T20:27:11.921Z,41.97
2018-10-16T20:29:39.085Z,41.10
2018-10-16T20:32:06.400Z,76.63
2018-10-16T20:34:33.728Z,35.53
2018-10-16T20:37:00.811Z,124.60
2018-10-16T20:39:28.081Z,312.17
2018-10-16T20:41:55.262Z,51.80
2018-10-16T20:44:22.521Z,112.20
2018-10-16T20:46:49.623Z,49.83
2018-10-16T20:49:16.723Z,57.57
2018-10-16T20:51:43.796Z,119.60
2018-10-16T20:54:10.864Z,69.03
2018-10-16T20:56:37.949Z,59.73
2018-10-16T20:59:05.071Z,45.03
2018-10-16T21:01:32.498Z,61.43
2018-10-16T21:03:59.664Z,59.33
2018-10-16T21:06:26.899Z,50.63
2018-10-16T21:08:53.912Z,47.50
2018-10-16T21:11:21.427Z,59.50
2018-10-16T21:13:48.497Z,114.67
2018-10-16T21:16:15.653Z,47.77
2018-10-16T21:18:42.998Z,40.30
2018-10-16T21:21:10.140Z,48.43
2018-10-16T21:23:37.303Z,65.40
2018-10-16T21:26:05.099Z,84.43
2018-10-16T21:28:32.337Z,69.87
2018-10-16T21:30:59.485Z,52.67
2018-10-16T21:33:26.672Z,33.67
2018-10-16T21:35:53.996Z,96.37
2018-10-16T21:38:21.076Z,116.43
2018-10-16T21:40:48.168Z,40.13
2018-10-16T21:43:15.321Z,37.47
2018-10-16T21:45:42.828Z,36.03
2018-10-16T21:48:10.003Z,116.23
2018-10-16T21:50:37.147Z,60.30
2018-10-16T21:53:04.352Z,64.27
2018-10-16T21:55:31.469Z,76.33
2018-10-16T21:57:58.569Z,50.97
2018-10-16T22:00:31.695Z,39.80
2018-10-16T22:02:58.778Z,36.33
2018-10-16T22:05:26.210Z,64.63
2018-10-16T22:07:54.745Z,63.77
2018-10-16T22:10:22.131Z,74.17
2018-10-16T22:12:49.569Z,48.57
2018-10-16T22:15:17.556Z,56.00
2018-10-16T22:17:44.655Z,58.73
2018-10-16T22:20:11.840Z,67.97
2018-10-16T22:22:38.940Z,44.10
2018-10-16T22:25:06.308Z,81.23
2018-10-16T22:27:33.453Z,132.03
2018-10-16T22:30:00.556Z,84.17
2018-10-16T22:32:27.641Z,82.20
2018-10-16T22:34:54.745Z,70.27
2018-10-16T22:37:22.519Z,75.53
2018-10-16T22:39:49.806Z,61.00
2018-10-16T22:42:16.920Z,65.03
2018-10-16T22:44:44.060Z,59.77
2018-10-16T22:47:11.433Z,64.30
2018-10-16T22:49:38.600Z,45.03
2018-10-16T22:52:05.723Z,48.57
2018-10-16T22:54:33.079Z,41.80
2018-10-16T22:57:00.168Z,44.43
2018-10-16T22:59:27.694Z,47.97
2018-10-16T23:01:54.881Z,43.07
2018-10-16T23:04:21.964Z,45.63
2018-10-16T23:06:49.135Z,42.77
2018-10-16T23:09:16.283Z,40.07
2018-10-16T23:11:43.840Z,45.10
2018-10-16T23:14:10.929Z,38.97
2018-10-16T23:16:38.003Z,38.57
2018-10-16T23:19:05.755Z,35.40
2018-10-16T23:21:32.884Z,34.10
2018-10-16T23:24:00.175Z,37.93
2018-10-16T23:26:27.460Z,38.50
2018-10-16T23:28:54.534Z,39.63
2018-10-16T23:31:21.628Z,34.90
2018-10-16T23:33:49.079Z,39.57
2018-10-16T23:36:16.240Z,40.33
2018-10-16T23:38:43.451Z,35.00
2018-10-16T23:41:10.623Z,37.20
2018-10-16T23:43:37.836Z,40.20
2018-10-16T23:46:06.188Z,38.43
2018-10-16T23:48:33.440Z,39.10
2018-10-16T23:51:00.564Z,39.90
2018-10-16T23:53:27.633Z,38.90
2018-10-16T23:55:54.811Z,38.33
2018-10-16T23:58:21.961Z,37.07
